Time;durP1;ratioP1;P1;durP2;ratioP2;P2;SDS_P1;SDS_P2;PMS_P1;PMS_P2;Temp;Humidity;BMP_temperature;BMP_pressure;BME280_temperature;BME280_humidity;BME280_pressure;Samples;Min_cycle;Max_cycle;Signal;HPM_P1;HPM_P2
2023/12/03 00:00:37;;;;;;;6.55;4.63;;;16.10;61.20;;;;;;5028931;28;20032;-49
2023/12/03 00:03:03;;;;;;;6.50;4.57;;;16.10;61.20;;;;;;5031424;28;20120;-54
2023/12/03 00:05:28;;;;;;;5.97;4.63;;;16.10;61.20;;;;;;5025409;28;20482;-51
2023/12/03 00:07:54;;;;;;;6.63;4.70;;;16.10;61.20;;;;;;5030479;28;20029;-49
2023/12/03 00:10:19;;;;;;;5.72;4.28;;;16.10;61.20;;;;;;5025638;28;20474;-58
2023/12/03 00:12:45;;;;;;;6.38;4.30;;;16.10;61.20;;;;;;5031752;28;21159;-48
2023/12/03 00:15:10;;;;;;;6.88;4.65;;;16.10;61.20;;;;;;5025297;28;20116;-50
2023/12/03 00:17:36;;;;;;;6.25;3.80;;;16.10;61.20;;;;;;5027410;28;20703;-51
2023/12/03 00:20:01;;;;;;;4.63;4.07;;;16.10;61.20;;;;;;5025345;28;20037;-57
2023/12/03 00:22:27;;;;;;;5.32;4.15;;;16.00;61.10;;;;;;5031385;28;20421;-49
2023/12/03 00:24:52;;;;;;;6.30;4.68;;;16.00;61.10;;;;;;5024181;28;20108;-53
2023/12/03 00:27:18;;;;;;;5.40;4.00;;;16.00;61.10;;;;;;5035677;28;20036;-51
2023/12/03 00:29:43;;;;;;;4.85;3.92;;;16.00;61.10;;;;;;5034310;28;20033;-53
2023/12/03 00:32:09;;;;;;;6.47;4.07;;;16.00;61.10;;;;;;5031235;28;20044;-49
2023/12/03 00:34:34;;;;;;;4.45;3.72;;;16.00;61.10;;;;;;5024616;28;20060;-52
2023/12/03 00:37:00;;;;;;;5.32;3.90;;;16.00;61.10;;;;;;5033648;28;20057;-54
2023/12/03 00:39:26;;;;;;;5.97;3.47;;;16.00;61.20;;;;;;5026812;28;20045;-56
2023/12/03 00:41:51;;;;;;;4.93;3.25;;;16.00;61.10;;;;;;5037516;28;20036;-49
2023/12/03 00:44:18;;;;;;;6.00;4.00;;;16.00;61.10;;;;;;5031491;28;20033;-51
2023/12/03 00:46:44;;;;;;;3.42;2.90;;;16.00;61.10;;;;;;5034004;28;20029;-49
2023/12/03 00:49:10;;;;;;;4.72;3.40;;;16.00;61.10;;;;;;5012447;28;20034;-52
2023/12/03 00:51:35;;;;;;;5.63;3.53;;;16.00;61.10;;;;;;5031740;28;20597;-54
2023/12/03 00:54:01;;;;;;;3.90;3.40;;;16.00;61.10;;;;;;5023902;28;20037;-51
2023/12/03 00:56:26;;;;;;;4.15;3.28;;;16.00;61.10;;;;;;5021823;28;20121;-52
2023/12/03 00:58:52;;;;;;;3.53;2.90;;;16.00;61.10;;;;;;5041301;28;20043;-53
2023/12/03 01:01:20;;;;;;;4.85;3.10;;;15.90;61.00;;;;;;5023280;28;20052;-49
2023/12/03 01:03:45;;;;;;;5.50;3.72;;;15.90;61.00;;;;;;5042559;28;20032;-49
2023/12/03 01:06:11;;;;;;;3.78;3.17;;;15.90;61.00;;;;;;5001328;28;20116;-50
2023/12/03 01:08:36;;;;;;;5.13;3.20;;;16.00;61.10;;;;;;5026070;28;20025;-53
2023/12/03 01:11:05;;;;;;;5.38;3.08;;;15.90;61.00;;;;;;5026870;28;20034;-52
2023/12/03 01:13:31;;;;;;;3.33;3.00;;;15.90;61.00;;;;;;5022568;28;20033;-51
2023/12/03 01:15:56;;;;;;;3.17;2.88;;;15.90;60.90;;;;;;5023238;28;20041;-50
2023/12/03 01:18:22;;;;;;;3.47;2.90;;;15.90;61.00;;;;;;5022632;28;20142;-52
2023/12/03 01:20:47;;;;;;;3.88;3.47;;;15.90;61.00;;;;;;5022170;28;20482;-54
2023/12/03 01:23:13;;;;;;;4.35;3.85;;;15.90;61.00;;;;;;5019516;28;20155;-51
2023/12/03 01:25:38;;;;;;;3.08;2.78;;;15.90;61.00;;;;;;5020775;28;20030;-52
2023/12/03 01:28:04;;;;;;;3.03;2.70;;;15.90;61.00;;;;;;5021824;28;20041;-50
2023/12/03 01:30:29;;;;;;;3.35;3.03;;;15.90;61.00;;;;;;5036124;28;20073;-51
2023/12/03 01:32:55;;;;;;;2.95;2.65;;;15.90;60.90;;;;;;5018576;28;20051;-53
2023/12/03 01:35:20;;;;;;;4.55;3.33;;;15.90;61.00;;;;;;5020527;28;20037;-52
2023/12/03 01:37:46;;;;;;;2.92;2.50;;;15.90;61.00;;;;;;5028544;28;20059;-52
2023/12/03 01:40:11;;;;;;;2.65;2.45;;;15.90;60.90;;;;;;5020796;28;20029;-52
2023/12/03 01:42:37;;;;;;;3.30;2.60;;;15.90;61.00;;;;;;5024063;28;20065;-51
2023/12/03 01:45:03;;;;;;;4.82;3.15;;;15.90;61.00;;;;;;5021134;28;20033;-52
2023/12/03 01:47:29;;;;;;;3.10;2.78;;;15.90;61.00;;;;;;5021430;28;20379;-49
2023/12/03 01:49:57;;;;;;;2.65;2.40;;;15.90;61.00;;;;;;5026624;28;20259;-51
2023/12/03 01:52:23;;;;;;;3.95;2.72;;;15.90;61.00;;;;;;5022529;28;20201;-49
2023/12/03 01:54:48;;;;;;;2.88;2.38;;;15.90;60.90;;;;;;5021984;28;20128;-49
2023/12/03 01:57:14;;;;;;;2.88;2.28;;;15.90;60.90;;;;;;5023499;28;20288;-51
2023/12/03 01:59:40;;;;;;;2.53;2.33;;;15.90;60.90;;;;;;5026656;28;20125;-49
2023/12/03 02:02:06;;;;;;;2.83;2.20;;;15.90;61.00;;;;;;5021441;28;20488;-50
2023/12/03 02:04:31;;;;;;;3.67;1.95;;;15.90;61.00;;;;;;5021184;28;20132;-52
2023/12/03 02:06:57;;;;;;;3.33;2.70;;;15.90;60.90;;;;;;5021924;28;20042;-49
2023/12/03 02:09:23;;;;;;;2.85;2.50;;;15.90;60.90;;;;;;5020233;28;20116;-53
2023/12/03 02:11:49;;;;;;;2.45;2.25;;;15.80;60.90;;;;;;5004866;28;20132;-49
2023/12/03 02:14:14;;;;;;;2.53;2.22;;;15.80;60.90;;;;;;5024424;28;20116;-52
2023/12/03 02:16:47;;;;;;;4.20;2.30;;;15.80;60.90;;;;;;5021931;28;20201;-52
2023/12/03 02:19:16;;;;;;;3.10;2.50;;;15.80;60.80;;;;;;5021800;28;20025;-53
2023/12/03 02:21:41;;;;;;;2.30;2.10;;;15.80;60.80;;;;;;5020679;28;20131;-50
2023/12/03 02:24:07;;;;;;;2.80;2.55;;;15.80;60.90;;;;;;5007264;28;20545;-54
2023/12/03 02:26:32;;;;;;;2.47;2.28;;;15.80;60.80;;;;;;5018221;28;20057;-50
2023/12/03 02:28:58;;;;;;;2.58;2.38;;;15.80;60.80;;;;;;5021393;28;20078;-52
2023/12/03 02:31:24;;;;;;;2.88;2.50;;;15.80;60.90;;;;;;5026802;28;20028;-50
2023/12/03 02:34:00;;;;;;;2.80;2.50;;;15.80;60.80;;;;;;5025325;28;20037;-47
2023/12/03 02:36:26;;;;;;;2.42;2.22;;;15.80;60.80;;;;;;5023127;28;20490;-50
2023/12/03 02:38:52;;;;;;;2.38;1.95;;;15.80;60.80;;;;;;5026778;28;20030;-51
2023/12/03 02:41:17;;;;;;;2.20;2.00;;;15.80;60.80;;;;;;5020294;28;20029;-50
2023/12/03 02:43:42;;;;;;;2.35;2.15;;;15.80;60.80;;;;;;5024408;28;20382;-50
2023/12/03 02:46:09;;;;;;;2.40;2.13;;;15.80;60.80;;;;;;5021264;28;20368;-49
2023/12/03 02:48:35;;;;;;;2.63;2.33;;;15.80;60.80;;;;;;5042655;28;20053;-48
2023/12/03 02:51:00;;;;;;;2.28;2.08;;;15.80;60.80;;;;;;5032654;28;20061;-49
2023/12/03 02:53:25;;;;;;;3.00;2.60;;;15.80;60.80;;;;;;5024377;28;20017;-50
2023/12/03 02:55:51;;;;;;;3.65;2.47;;;15.70;60.80;;;;;;5023345;28;20030;-49
2023/12/03 02:58:16;;;;;;;2.03;1.80;;;15.70;60.70;;;;;;5025508;28;20037;-51
2023/12/03 03:00:42;;;;;;;3.15;2.05;;;15.70;60.70;;;;;;5019950;28;20029;-53
2023/12/03 03:03:07;;;;;;;3.15;2.20;;;15.70;60.80;;;;;;5021453;28;20453;-48
2023/12/03 03:05:33;;;;;;;2.45;2.00;;;15.70;60.70;;;;;;5023891;28;20045;-50
2023/12/03 03:07:58;;;;;;;2.72;2.53;;;15.70;60.70;;;;;;5022530;28;20026;-50
2023/12/03 03:10:24;;;;;;;2.22;2.03;;;15.70;60.70;;;;;;5021322;28;20044;-54
2023/12/03 03:12:49;;;;;;;2.13;1.92;;;15.70;60.70;;;;;;5026941;28;20033;-50
2023/12/03 03:15:15;;;;;;;2.97;2.15;;;15.70;60.70;;;;;;5028474;28;20135;-51
2023/12/03 03:17:40;;;;;;;2.25;1.92;;;15.70;60.70;;;;;;5004901;28;20076;-52
2023/12/03 03:20:07;;;;;;;1.98;1.77;;;15.70;60.70;;;;;;5020518;28;20263;-51
2023/12/03 03:22:32;;;;;;;2.08;1.88;;;15.70;60.70;;;;;;5028351;28;20030;-53
2023/12/03 03:24:59;;;;;;;2.55;2.22;;;15.70;61.30;;;;;;5020628;28;20898;-52
2023/12/03 03:27:24;;;;;;;2.33;1.88;;;15.70;60.70;;;;;;5032981;28;20595;-48
2023/12/03 03:29:50;;;;;;;3.25;2.10;;;15.70;60.70;;;;;;5020710;28;20036;-52
2023/12/03 03:32:15;;;;;;;3.47;1.73;;;15.70;60.80;;;;;;5017775;28;20056;-52
2023/12/03 03:34:41;;;;;;;2.53;2.13;;;15.70;60.70;;;;;;5020010;28;20060;-52
2023/12/03 03:37:06;;;;;;;2.20;1.92;;;15.70;60.70;;;;;;5023446;28;20060;-52
2023/12/03 03:39:32;;;;;;;2.17;1.92;;;15.70;60.70;;;;;;5004943;28;20035;-50
2023/12/03 03:41:57;;;;;;;2.17;1.73;;;15.60;60.60;;;;;;5025455;28;20544;-49
2023/12/03 03:44:23;;;;;;;2.25;1.92;;;15.60;60.60;;;;;;5025405;28;20521;-52
2023/12/03 03:46:48;;;;;;;2.00;1.80;;;15.60;60.60;;;;;;5022765;28;20053;-52
2023/12/03 03:49:14;;;;;;;2.22;2.03;;;15.60;60.60;;;;;;5030721;28;20033;-52
2023/12/03 03:51:40;;;;;;;2.28;1.88;;;15.60;60.60;;;;;;5025178;28;20033;-49
2023/12/03 03:54:05;;;;;;;1.92;1.55;;;15.60;60.60;;;;;;5027822;28;20056;-49
2023/12/03 03:56:31;;;;;;;3.03;1.88;;;15.60;60.60;;;;;;5023216;28;20442;-53
2023/12/03 03:58:56;;;;;;;2.47;2.08;;;15.60;60.60;;;;;;5025390;28;20349;-51
2023/12/03 04:01:22;;;;;;;1.98;1.60;;;15.60;60.60;;;;;;5026448;28;20140;-51
2023/12/03 04:03:47;;;;;;;1.83;1.63;;;15.60;60.60;;;;;;5032650;28;20095;-52
2023/12/03 04:06:13;;;;;;;2.05;1.88;;;15.60;60.60;;;;;;5037441;28;20044;-51
2023/12/03 04:08:39;;;;;;;1.95;1.83;;;15.60;60.60;;;;;;5012180;28;20045;-50
2023/12/03 04:11:04;;;;;;;1.70;1.60;;;15.60;60.60;;;;;;5024695;28;20126;-48
2023/12/03 04:13:30;;;;;;;1.80;1.70;;;15.60;60.60;;;;;;5029266;28;20044;-50
2023/12/03 04:15:57;;;;;;;1.90;1.70;;;15.60;60.60;;;;;;5035149;28;20044;-49
2023/12/03 04:18:23;;;;;;;2.47;2.03;;;15.60;60.60;;;;;;5024319;28;20018;-51
2023/12/03 04:20:49;;;;;;;1.85;1.70;;;15.60;60.60;;;;;;5026116;28;20046;-50
2023/12/03 04:23:14;;;;;;;1.80;1.70;;;15.60;60.60;;;;;;5026170;28;20041;-49
2023/12/03 04:25:40;;;;;;;1.75;1.65;;;15.60;60.60;;;;;;5029174;28;20061;-52
2023/12/03 04:28:05;;;;;;;2.55;1.75;;;15.60;60.70;;;;;;5032297;28;20029;-51
2023/12/03 04:30:31;;;;;;;2.45;2.10;;;15.50;60.60;;;;;;5029727;28;20060;-49
2023/12/03 04:32:56;;;;;;;2.38;1.85;;;15.50;60.60;;;;;;5025735;28;20083;-48
2023/12/03 04:35:22;;;;;;;2.10;1.90;;;15.50;60.60;;;;;;5022863;28;20399;-52
2023/12/03 04:37:47;;;;;;;2.40;1.67;;;15.50;60.60;;;;;;5022348;28;20060;-51
2023/12/03 04:40:13;;;;;;;1.50;1.40;;;15.50;60.60;;;;;;5024405;28;20028;-50
2023/12/03 04:42:38;;;;;;;1.77;1.58;;;15.50;60.60;;;;;;5022096;28;20161;-53
2023/12/03 04:45:04;;;;;;;2.08;1.88;;;15.50;60.60;;;;;;5024802;28;20040;-49
2023/12/03 04:47:30;;;;;;;1.50;1.40;;;15.50;60.60;;;;;;5021185;28;20548;-50
2023/12/03 04:49:55;;;;;;;1.88;1.63;;;15.50;60.60;;;;;;5025270;28;20025;-49
2023/12/03 04:52:21;;;;;;;1.67;1.58;;;15.50;60.60;;;;;;5025320;28;20041;-47
2023/12/03 04:54:46;;;;;;;1.80;1.60;;;15.50;60.60;;;;;;5022932;28;20041;-52
2023/12/03 04:57:12;;;;;;;1.95;1.60;;;15.50;60.60;;;;;;5023842;28;20832;-52
2023/12/03 04:59:37;;;;;;;2.05;1.73;;;15.50;60.60;;;;;;5021552;28;20030;-49
2023/12/03 05:02:03;;;;;;;2.00;1.73;;;15.50;60.70;;;;;;5024831;28;20037;-52
2023/12/03 05:04:28;;;;;;;1.65;1.52;;;15.50;60.60;;;;;;5027453;28;20441;-53
2023/12/03 05:06:54;;;;;;;1.85;1.70;;;15.50;60.60;;;;;;5032308;28;20033;-48
2023/12/03 05:09:19;;;;;;;1.50;1.40;;;15.50;60.70;;;;;;5023130;28;20137;-52
2023/12/03 05:11:45;;;;;;;1.60;1.50;;;15.50;60.70;;;;;;5023308;28;20033;-52
2023/12/03 05:14:11;;;;;;;1.35;1.25;;;15.50;60.70;;;;;;5029231;28;20045;-52
2023/12/03 05:16:37;;;;;;;1.90;1.70;;;15.50;60.70;;;;;;5022080;28;20026;-51
2023/12/03 05:19:02;;;;;;;1.90;1.60;;;15.50;60.70;;;;;;5025559;28;20045;-51
2023/12/03 05:21:28;;;;;;;1.98;1.75;;;15.40;60.60;;;;;;5024143;28;20041;-59
2023/12/03 05:23:54;;;;;;;1.55;1.40;;;15.50;60.70;;;;;;5028017;28;20028;-53
2023/12/03 05:26:19;;;;;;;2.60;1.40;;;15.50;60.60;;;;;;5024464;28;20386;-50
2023/12/03 05:28:45;;;;;;;2.50;1.98;;;15.50;60.60;;;;;;5030454;28;20030;-52
2023/12/03 05:31:10;;;;;;;1.60;1.50;;;15.40;60.60;;;;;;5031996;28;20036;-52
2023/12/03 05:33:36;;;;;;;1.60;1.50;;;15.40;60.60;;;;;;5024436;28;20033;-52
2023/12/03 05:36:02;;;;;;;1.90;1.70;;;15.40;60.60;;;;;;5019884;28;20038;-52
2023/12/03 05:38:28;;;;;;;1.58;1.48;;;15.40;60.50;;;;;;5023275;28;20040;-48
2023/12/03 05:40:53;;;;;;;1.60;1.50;;;15.40;60.60;;;;;;5031230;28;20029;-52
2023/12/03 05:43:19;;;;;;;2.08;1.88;;;15.40;60.60;;;;;;5028847;28;20021;-52
2023/12/03 05:45:44;;;;;;;1.35;1.25;;;15.40;60.50;;;;;;5022951;28;20037;-52
2023/12/03 05:48:10;;;;;;;1.60;1.50;;;15.50;60.60;;;;;;5026765;28;20120;-51
2023/12/03 05:50:35;;;;;;;1.92;1.70;;;15.40;60.50;;;;;;5022366;28;20029;-52
2023/12/03 05:53:01;;;;;;;1.65;1.42;;;15.40;60.50;;;;;;5028440;28;20487;-52
2023/12/03 05:55:26;;;;;;;3.90;1.90;;;15.40;60.50;;;;;;5024718;28;20041;-54
2023/12/03 05:57:52;;;;;;;1.70;1.45;;;15.40;60.50;;;;;;5026772;28;20515;-53
2023/12/03 06:00:18;;;;;;;2.17;1.48;;;15.40;60.50;;;;;;5021813;28;20033;-49
2023/12/03 06:02:44;;;;;;;1.67;1.45;;;15.40;60.50;;;;;;5021935;28;20030;-51
2023/12/03 06:05:09;;;;;;;1.70;1.55;;;15.40;60.50;;;;;;5023105;28;20140;-56
2023/12/03 06:07:35;;;;;;;1.85;1.70;;;15.40;60.50;;;;;;5024785;28;20033;-47
2023/12/03 06:10:00;;;;;;;1.88;1.70;;;15.40;60.50;;;;;;5026016;28;20061;-47
2023/12/03 06:12:26;;;;;;;1.83;1.63;;;15.40;60.50;;;;;;5023162;28;20486;-53
2023/12/03 06:14:51;;;;;;;1.80;1.70;;;15.40;60.50;;;;;;5024512;28;20041;-54
2023/12/03 06:17:17;;;;;;;2.28;1.50;;;15.40;60.50;;;;;;5025620;28;20393;-54
2023/12/03 06:19:44;;;;;;;2.40;1.70;;;15.40;60.50;;;;;;5025234;28;20037;-57
2023/12/03 06:22:09;;;;;;;2.00;1.80;;;15.40;60.50;;;;;;5021577;28;20049;-50
2023/12/03 06:24:35;;;;;;;1.60;1.50;;;15.40;60.50;;;;;;5021094;28;20076;-50
2023/12/03 06:27:00;;;;;;;2.10;1.90;;;15.40;60.50;;;;;;5021545;28;20056;-51
2023/12/03 06:29:26;;;;;;;1.73;1.60;;;15.30;60.40;;;;;;5017562;28;21132;-52
2023/12/03 06:31:51;;;;;;;1.83;1.67;;;15.30;60.40;;;;;;5018656;28;20099;-51
2023/12/03 06:34:17;;;;;;;1.48;1.30;;;15.30;60.40;;;;;;5024888;28;20034;-49
2023/12/03 06:36:42;;;;;;;1.73;1.58;;;15.30;60.40;;;;;;5023353;28;20495;-49
2023/12/03 06:39:08;;;;;;;1.95;1.75;;;15.30;60.40;;;;;;5032491;28;20033;-53
2023/12/03 06:41:34;;;;;;;1.95;1.60;;;15.30;60.50;;;;;;5030137;28;20033;-48
2023/12/03 06:43:59;;;;;;;3.40;2.30;;;15.30;60.50;;;;;;5029798;28;20057;-49
2023/12/03 06:46:25;;;;;;;3.25;2.70;;;15.30;60.50;;;;;;5024079;28;20056;-47
2023/12/03 06:48:50;;;;;;;5.07;3.10;;;15.30;60.50;;;;;;5026848;28;20033;-54
2023/12/03 06:51:16;;;;;;;3.95;3.47;;;15.30;60.60;;;;;;5026774;28;20232;-46
2023/12/03 06:53:41;;;;;;;4.45;3.42;;;15.30;60.60;;;;;;5031088;28;20402;-50
2023/12/03 06:56:11;;;;;;;6.30;3.50;;;15.30;60.60;;;;;;5023303;28;20043;-54
2023/12/03 06:58:36;;;;;;;4.70;3.65;;;15.30;60.60;;;;;;5025610;28;20021;-54
2023/12/03 07:01:02;;;;;;;4.90;3.42;;;15.30;60.60;;;;;;5030030;28;20026;-45
2023/12/03 07:03:28;;;;;;;10.43;6.93;;;15.30;60.60;;;;;;5028869;28;20029;-45
2023/12/03 07:05:54;;;;;;;11.55;5.68;;;15.60;60.70;;;;;;5026018;28;20026;-46
2023/12/03 07:08:20;;;;;;;13.07;5.28;;;16.00;59.20;;;;;;5022677;28;20052;-48
2023/12/03 07:10:45;;;;;;;12.15;5.45;;;16.40;59.10;;;;;;5029983;28;20040;-45
2023/12/03 07:13:11;;;;;;;8.05;5.25;;;16.60;58.20;;;;;;5027078;28;20030;-51
2023/12/03 07:15:36;;;;;;;9.27;5.00;;;16.70;57.60;;;;;;5027245;28;20042;-56
2023/12/03 07:18:03;;;;;;;8.20;5.28;;;16.70;57.20;;;;;;5034549;28;20033;-46
2023/12/03 07:20:28;;;;;;;13.02;7.22;;;16.70;56.80;;;;;;5028788;28;20201;-45
2023/12/03 07:22:55;;;;;;;41.30;18.13;;;16.80;56.70;;;;;;5030206;28;20120;-46
2023/12/03 07:25:24;;;;;;;55.72;25.75;;;16.80;56.70;;;;;;5029013;28;20132;-57
2023/12/03 07:27:49;;;;;;;45.92;22.33;;;16.80;56.60;;;;;;5030801;28;20071;-55
2023/12/03 07:30:15;;;;;;;45.42;24.17;;;16.80;56.80;;;;;;5031427;28;20029;-53
2023/12/03 07:32:40;;;;;;;47.13;22.70;;;16.90;56.90;;;;;;5022182;28;20043;-49
2023/12/03 07:35:06;;;;;;;45.45;20.92;;;16.80;56.40;;;;;;5026954;28;20103;-48
2023/12/03 07:37:32;;;;;;;78.45;37.05;;;16.80;56.10;;;;;;5040429;28;20494;-52
2023/12/03 07:39:57;;;;;;;74.07;36.85;;;16.80;56.60;;;;;;5026153;28;20025;-54
2023/12/03 07:42:25;;;;;;;75.00;30.42;;;16.80;56.50;;;;;;5022789;28;20026;-46
2023/12/03 07:44:51;;;;;;;96.15;48.05;;;16.80;56.40;;;;;;5030928;28;21678;-46
2023/12/03 07:47:16;;;;;;;108.63;55.50;;;16.80;57.10;;;;;;5025052;28;20079;-52
2023/12/03 07:49:43;;;;;;;107.45;53.58;;;16.80;57.30;;;;;;5024495;28;20116;-53
2023/12/03 07:52:08;;;;;;;113.25;53.47;;;16.80;57.00;;;;;;5024567;28;20498;-54
2023/12/03 07:54:33;;;;;;;95.53;46.92;;;16.70;56.70;;;;;;5024417;28;20044;-56
2023/12/03 07:56:59;;;;;;;89.82;44.40;;;16.70;56.60;;;;;;5023574;28;20033;-50
2023/12/03 07:59:24;;;;;;;81.85;45.45;;;16.70;56.40;;;;;;5022959;28;20033;-50
2023/12/03 08:01:50;;;;;;;82.75;42.58;;;16.70;56.20;;;;;;5023092;28;20056;-52
2023/12/03 08:04:16;;;;;;;76.93;39.22;;;16.70;56.20;;;;;;5024479;28;20434;-47
2023/12/03 08:06:41;;;;;;;74.45;41.42;;;16.70;56.00;;;;;;5023633;28;20034;-50
2023/12/03 08:09:07;;;;;;;71.90;38.58;;;16.70;56.00;;;;;;5026505;28;20056;-53
2023/12/03 08:11:32;;;;;;;68.53;35.72;;;16.60;55.90;;;;;;5030256;28;20140;-56
2023/12/03 08:13:58;;;;;;;63.30;34.22;;;16.70;55.90;;;;;;5028396;28;20585;-53
2023/12/03 08:16:23;;;;;;;59.95;34.70;;;16.70;55.80;;;;;;5025487;28;20156;-47
2023/12/03 08:18:49;;;;;;;62.85;32.63;;;16.70;55.80;;;;;;5031656;28;20402;-52
2023/12/03 08:21:14;;;;;;;66.10;33.67;;;16.80;55.40;;;;;;5024979;28;20033;-52
2023/12/03 08:23:41;;;;;;;61.88;30.90;;;17.10;55.50;;;;;;5024853;28;20033;-48
2023/12/03 08:26:07;;;;;;;56.88;28.38;;;17.20;55.20;;;;;;5023776;28;20379;-51
2023/12/03 08:28:33;;;;;;;53.45;26.02;;;17.30;54.50;;;;;;5022203;28;20080;-51
2023/12/03 08:30:59;;;;;;;58.97;26.85;;;17.30;54.00;;;;;;5024638;28;20441;-47
2023/12/03 08:33:25;;;;;;;53.88;26.88;;;17.40;54.50;;;;;;5024584;28;20112;-53
2023/12/03 08:35:50;;;;;;;76.85;35.47;;;17.40;53.90;;;;;;5023412;28;20246;-47
2023/12/03 08:38:16;;;;;;;81.05;38.25;;;17.50;54.50;;;;;;5029876;28;20031;-51
2023/12/03 08:40:41;;;;;;;82.45;37.97;;;17.60;54.70;;;;;;5028436;28;20033;-56
2023/12/03 08:43:07;;;;;;;75.43;37.58;;;17.60;54.80;;;;;;5025042;28;20033;-55
2023/12/03 08:45:33;;;;;;;74.95;37.72;;;17.70;54.90;;;;;;5027684;28;20034;-54
2023/12/03 08:48:02;;;;;;;74.15;35.55;;;17.70;55.00;;;;;;5024586;28;20079;-50
2023/12/03 08:50:30;;;;;;;70.03;35.45;;;17.70;55.00;;;;;;5028877;28;20457;-52
2023/12/03 08:52:56;;;;;;;66.50;31.65;;;17.70;54.90;;;;;;5028335;28;20390;-54
2023/12/03 08:55:21;;;;;;;68.80;30.10;;;17.70;54.80;;;;;;5027500;28;20044;-52
2023/12/03 08:57:48;;;;;;;50.75;25.60;;;17.70;55.10;;;;;;5030189;28;20040;-51
2023/12/03 09:00:15;;;;;;;51.55;22.90;;;17.60;55.10;;;;;;5028242;28;20036;-53
2023/12/03 09:02:45;;;;;;;40.95;22.55;;;17.50;55.30;;;;;;5022936;28;20053;-55
2023/12/03 09:05:10;;;;;;;42.17;21.20;;;17.50;55.40;;;;;;5023587;28;20029;-51
2023/12/03 09:07:36;;;;;;;43.47;21.08;;;17.40;55.30;;;;;;5022220;28;20036;-50
2023/12/03 09:10:02;;;;;;;39.40;19.77;;;17.40;55.40;;;;;;5021874;28;20056;-50
2023/12/03 09:12:28;;;;;;;39.92;20.80;;;17.40;55.60;;;;;;5022373;28;20026;-47
2023/12/03 09:14:53;;;;;;;39.28;19.42;;;17.40;55.70;;;;;;5022336;28;20111;-52
2023/12/03 09:17:19;;;;;;;51.47;20.42;;;17.30;56.00;;;;;;5024654;28;20049;-52
2023/12/03 09:19:45;;;;;;;36.40;19.95;;;17.40;55.60;;;;;;5023131;28;20044;-54
2023/12/03 09:22:10;;;;;;;33.42;17.00;;;17.30;55.40;;;;;;5025274;28;20033;-48
2023/12/03 09:24:35;;;;;;;29.90;16.75;;;17.30;55.40;;;;;;5022875;28;20025;-54
2023/12/03 09:27:01;;;;;;;31.73;17.17;;;17.30;56.70;;;;;;5027288;28;20058;-50
2023/12/03 09:29:26;;;;;;;31.75;16.00;;;17.40;57.40;;;;;;5025844;28;20136;-51
2023/12/03 09:31:52;;;;;;;32.83;16.70;;;17.40;55.70;;;;;;5026937;28;20076;-52
2023/12/03 09:34:17;;;;;;;31.33;15.88;;;17.40;55.60;;;;;;5018254;28;20137;-50
2023/12/03 09:36:43;;;;;;;24.90;13.98;;;17.50;55.40;;;;;;5021558;28;20040;-50
2023/12/03 09:39:08;;;;;;;27.35;14.55;;;17.50;55.40;;;;;;5019657;28;20041;-48
2023/12/03 09:41:42;;;;;;;28.30;14.77;;;17.50;55.20;;;;;;5020999;28;20037;-59
2023/12/03 09:44:16;;;;;;;28.50;13.13;;;17.60;55.40;;;;;;5019773;28;20045;-51
2023/12/03 09:46:44;;;;;;;31.88;14.25;;;17.40;55.90;;;;;;5007261;28;20025;-50
2023/12/03 09:49:11;;;;;;;26.25;13.93;;;17.00;56.80;;;;;;5021533;28;20037;-52
2023/12/03 09:51:40;;;;;;;30.52;14.18;;;16.80;57.50;;;;;;5019553;28;20579;-51
2023/12/03 09:54:08;;;;;;;23.92;12.32;;;16.60;57.90;;;;;;5018824;28;20041;-52
2023/12/03 09:56:34;;;;;;;24.88;13.40;;;16.50;58.30;;;;;;5019396;28;20033;-56
2023/12/03 09:59:00;;;;;;;22.80;12.65;;;16.40;58.50;;;;;;5019588;28;20033;-49
2023/12/03 10:01:26;;;;;;;26.92;13.95;;;16.40;58.70;;;;;;5022112;28;20850;-54
2023/12/03 10:03:52;;;;;;;21.52;12.00;;;16.30;58.80;;;;;;5018101;28;20509;-52
2023/12/03 10:06:21;;;;;;;21.50;13.77;;;16.30;59.00;;;;;;5020157;28;20326;-54
2023/12/03 10:08:48;;;;;;;29.17;13.20;;;16.30;59.10;;;;;;5017377;28;20052;-52
2023/12/03 10:11:19;;;;;;;23.70;12.07;;;16.20;59.10;;;;;;5023618;28;20549;-56
2023/12/03 10:13:46;;;;;;;28.40;12.27;;;16.20;59.20;;;;;;5017929;28;20407;-47
2023/12/03 10:16:12;;;;;;;24.95;12.73;;;16.10;59.20;;;;;;5025761;28;20430;-47
2023/12/03 10:18:38;;;;;;;23.83;12.77;;;16.10;59.20;;;;;;5028511;28;20018;-49
2023/12/03 10:21:08;;;;;;;25.90;13.32;;;16.10;59.30;;;;;;5033158;28;20075;-47
2023/12/03 10:23:35;;;;;;;26.75;13.98;;;16.10;59.30;;;;;;5014323;28;20498;-53
2023/12/03 10:26:10;;;;;;;29.63;13.52;;;16.10;59.40;;;;;;5030902;28;20041;-53
2023/12/03 10:28:35;;;;;;;27.08;14.18;;;16.10;59.40;;;;;;5015782;28;20037;-55
2023/12/03 10:31:01;;;;;;;29.60;14.18;;;16.00;59.40;;;;;;5030626;28;20506;-53
2023/12/03 10:33:26;;;;;;;28.90;13.98;;;16.00;59.40;;;;;;5031095;28;20025;-49
2023/12/03 10:35:59;;;;;;;27.27;14.57;;;16.00;59.50;;;;;;5025572;28;20409;-53
2023/12/03 10:38:25;;;;;;;30.38;15.32;;;16.00;59.50;;;;;;5026804;28;20029;-58
2023/12/03 10:40:51;;;;;;;34.20;17.27;;;16.00;59.50;;;;;;5021830;28;20124;-47
2023/12/03 10:43:16;;;;;;;33.88;19.00;;;16.00;59.60;;;;;;5024824;28;20025;-47
2023/12/03 10:45:42;;;;;;;38.90;18.80;;;15.90;59.60;;;;;;5018438;28;20033;-50
2023/12/03 10:48:10;;;;;;;38.03;21.60;;;15.90;59.60;;;;;;5030133;28;20121;-52
2023/12/03 10:50:38;;;;;;;42.30;22.38;;;15.90;59.60;;;;;;5023804;28;20026;-60
2023/12/03 10:53:05;;;;;;;41.70;21.50;;;15.90;59.70;;;;;;5022172;28;20232;-59
2023/12/03 10:55:31;;;;;;;44.33;23.60;;;15.90;59.80;;;;;;5023275;28;20053;-51
2023/12/03 10:58:02;;;;;;;46.30;23.45;;;15.90;60.00;;;;;;5021764;28;20095;-47
2023/12/03 11:00:55;;;;;;;45.05;24.25;;;15.90;60.10;;;;;;5020507;28;20048;-52
2023/12/03 11:03:29;;;;;;;51.05;27.27;;;15.80;60.80;;;;;;5002794;28;20098;-50
2023/12/03 11:05:58;;;;;;;50.28;27.52;;;15.80;60.80;;;;;;5017511;28;20393;-51
2023/12/03 11:08:25;;;;;;;46.47;25.30;;;15.80;60.50;;;;;;5020550;28;20529;-46
2023/12/03 11:10:54;;;;;;;45.33;24.67;;;15.80;61.50;;;;;;5020602;28;20049;-47
2023/12/03 11:13:22;;;;;;;47.35;26.65;;;15.80;61.00;;;;;;5020510;28;20026;-57
2023/12/03 11:15:49;;;;;;;46.00;25.17;;;15.80;61.20;;;;;;5021196;28;20045;-49
2023/12/03 11:18:17;;;;;;;47.10;26.65;;;15.70;61.30;;;;;;5030239;28;20108;-48
2023/12/03 11:20:46;;;;;;;47.55;25.70;;;15.70;61.20;;;;;;5027224;28;20028;-48
2023/12/03 11:23:30;;;;;;;42.40;24.48;;;15.80;61.30;;;;;;5031208;28;20033;-46
2023/12/03 11:26:18;;;;;;;45.75;25.15;;;15.80;62.00;;;;;;5026440;28;20033;-51
2023/12/03 11:28:57;;;;;;;41.03;25.08;;;15.70;61.10;;;;;;5019308;28;20037;-47
2023/12/03 11:31:24;;;;;;;48.70;25.13;;;15.70;61.00;;;;;;5024045;28;20056;-48
2023/12/03 11:33:51;;;;;;;45.15;24.63;;;15.70;60.90;;;;;;5030611;28;20454;-50
2023/12/03 11:36:17;;;;;;;47.17;25.42;;;15.70;61.20;;;;;;5036992;23;20065;-53
2023/12/03 11:38:43;;;;;;;43.33;25.00;;;15.70;61.00;;;;;;5030452;28;20049;-55
2023/12/03 11:41:08;;;;;;;42.65;24.33;;;15.70;60.90;;;;;;5041075;28;20068;-48
2023/12/03 11:43:35;;;;;;;39.53;22.92;;;15.70;61.00;;;;;;5042149;28;20037;-46
2023/12/03 11:46:01;;;;;;;41.25;23.65;;;15.70;61.00;;;;;;5040969;28;20021;-54
2023/12/03 11:48:27;;;;;;;37.80;22.42;;;15.70;61.00;;;;;;5041329;28;20571;-52
2023/12/03 11:50:55;;;;;;;40.55;23.50;;;15.60;61.00;;;;;;5041069;28;20067;-46
2023/12/03 11:53:42;;;;;;;42.28;23.95;;;15.60;61.00;;;;;;5041389;28;20025;-46
2023/12/03 11:56:08;;;;;;;40.95;23.25;;;15.60;60.90;;;;;;5026765;28;20033;-56
2023/12/03 11:58:34;;;;;;;36.88;22.20;;;15.60;61.20;;;;;;5036809;28;20028;-50
2023/12/03 12:01:00;;;;;;;36.42;22.42;;;15.60;61.10;;;;;;5036651;28;20078;-50
2023/12/03 12:03:25;;;;;;;45.25;23.42;;;15.60;61.20;;;;;;5034710;28;20164;-54
2023/12/03 12:05:52;;;;;;;39.70;21.85;;;15.60;61.20;;;;;;5034595;28;20046;-50
2023/12/03 12:08:23;;;;;;;37.45;21.85;;;15.60;61.20;;;;;;5035021;28;20029;-55
2023/12/03 12:10:50;;;;;;;41.40;22.15;;;15.50;61.10;;;;;;5029524;28;20033;-51
2023/12/03 12:13:16;;;;;;;36.08;21.17;;;15.60;61.30;;;;;;5034542;28;20067;-54
2023/12/03 12:15:43;;;;;;;33.70;20.42;;;15.60;61.30;;;;;;5036060;28;20040;-55
2023/12/03 12:18:09;;;;;;;36.63;20.15;;;15.60;61.30;;;;;;5018239;28;20029;-49
2023/12/03 12:20:35;;;;;;;30.45;19.35;;;15.50;61.20;;;;;;5029063;28;20029;-49
2023/12/03 12:23:00;;;;;;;31.38;19.05;;;15.50;61.30;;;;;;5036642;28;20120;-51
2023/12/03 12:25:27;;;;;;;32.65;19.00;;;15.50;61.20;;;;;;5039747;28;20040;-51
2023/12/03 12:27:54;;;;;;;30.60;18.30;;;15.50;61.30;;;;;;5043079;28;20037;-49
2023/12/03 12:30:24;;;;;;;37.28;20.00;;;15.50;61.30;;;;;;5040779;28;20033;-47
2023/12/03 12:32:51;;;;;;;35.38;18.48;;;15.50;61.50;;;;;;5038102;28;20037;-52